createdAt,value
2022-11-06T00:00:32.751Z,4.65
2022-11-06T00:01:35.318Z,4.75
2022-11-06T00:02:37.709Z,4.53
2022-11-06T00:03:40.504Z,4.80
2022-11-06T00:04:42.852Z,4.82
2022-11-06T00:06:04.082Z,4.40
2022-11-06T00:07:07.750Z,4.40
2022-11-06T00:08:10.591Z,4.53
2022-11-06T00:09:15.099Z,4.22
2022-11-06T00:10:18.132Z,4.10
2022-11-06T00:11:21.083Z,4.40
2022-11-06T00:12:23.378Z,5.00
2022-11-06T00:13:25.857Z,4.88
2022-11-06T00:14:28.146Z,4.68
2022-11-06T00:15:31.016Z,4.75
2022-11-06T00:16:33.529Z,4.78
2022-11-06T00:17:35.791Z,4.57
2022-11-06T00:18:39.358Z,3.97
2022-11-06T00:19:41.619Z,4.53
2022-11-06T00:20:44.047Z,4.60
2022-11-06T00:21:46.581Z,4.45
2022-11-06T00:22:48.863Z,4.80
2022-11-06T00:23:52.329Z,5.20
2022-11-06T00:24:54.614Z,4.63
2022-11-06T00:25:56.982Z,4.55
2022-11-06T00:26:59.261Z,3.97
2022-11-06T00:28:01.616Z,4.80
2022-11-06T00:29:05.211Z,5.95
2022-11-06T00:30:09.640Z,6.20
2022-11-06T00:31:14.933Z,26.23
2022-11-06T00:32:17.214Z,12.20
2022-11-06T00:33:19.491Z,22.48
2022-11-06T00:34:21.789Z,12.02
2022-11-06T00:35:24.049Z,8.57
2022-11-06T00:36:30.124Z,8.63
2022-11-06T00:37:33.354Z,10.57
2022-11-06T00:38:35.924Z,12.20
2022-11-06T00:39:38.333Z,9.25
2022-11-06T00:40:40.614Z,7.72
2022-11-06T00:41:43.055Z,7.32
2022-11-06T00:42:45.621Z,6.45
2022-11-06T00:43:54.341Z,6.68
2022-11-06T00:44:57.014Z,6.25
2022-11-06T00:46:08.052Z,5.38
2022-11-06T00:47:11.911Z,5.60
2022-11-06T00:48:14.530Z,6.07
2022-11-06T00:49:17.237Z,5.78
2022-11-06T00:50:19.667Z,5.30
2022-11-06T00:51:24.859Z,5.57
2022-11-06T00:52:29.565Z,5.95
2022-11-06T00:53:32.012Z,5.97
2022-11-06T00:54:34.339Z,5.32
2022-11-06T00:55:36.621Z,5.38
2022-11-06T00:56:39.602Z,5.40
2022-11-06T00:57:42.021Z,4.95
2022-11-06T00:58:45.863Z,5.65
2022-11-06T00:59:48.210Z,4.97
2022-11-06T01:00:50.488Z,5.18
2022-11-06T01:01:52.817Z,5.43
2022-11-06T01:02:56.456Z,5.43
2022-11-06T01:04:04.735Z,5.22
2022-11-06T01:05:07.311Z,4.90
2022-11-06T01:06:21.778Z,5.15
2022-11-06T01:07:24.492Z,4.93
2022-11-06T01:08:26.809Z,5.13
2022-11-06T01:09:29.209Z,4.68
2022-11-06T01:10:31.765Z,3.90
2022-11-06T01:12:06.964Z,3.80
2022-11-06T01:13:01.620Z,4.22
2022-11-06T01:14:05.661Z,4.65
2022-11-06T01:15:08.478Z,4.38
2022-11-06T01:16:13.285Z,4.72
2022-11-06T01:17:15.740Z,3.80
2022-11-06T01:18:18.101Z,4.18
2022-11-06T01:19:21.540Z,5.10
2022-11-06T01:20:23.840Z,5.00
2022-11-06T01:21:36.321Z,4.15
2022-11-06T01:22:38.661Z,6.15
2022-11-06T01:23:43.076Z,11.57
2022-11-06T01:24:45.431Z,10.10
2022-11-06T01:26:01.429Z,7.72
2022-11-06T01:28:27.184Z,6.55
2022-11-06T01:29:29.493Z,6.60
2022-11-06T01:30:31.788Z,5.43
2022-11-06T01:31:35.313Z,5.03
2022-11-06T01:32:37.589Z,5.32
2022-11-06T01:33:40.681Z,4.75
2022-11-06T01:34:43.124Z,4.53
2022-11-06T01:35:47.207Z,4.20
2022-11-06T01:36:49.532Z,4.50
2022-11-06T01:37:51.881Z,4.40
2022-11-06T01:38:56.644Z,4.40
2022-11-06T01:39:59.020Z,4.10
2022-11-06T01:41:01.513Z,3.95
2022-11-06T01:42:04.024Z,4.55
2022-11-06T01:43:14.818Z,3.88
2022-11-06T01:44:35.483Z,5.20
2022-11-06T01:45:39.072Z,4.50
2022-11-06T01:46:41.631Z,4.15
2022-11-06T01:47:44.333Z,3.70
2022-11-06T01:48:50.344Z,3.90
2022-11-06T01:49:59.249Z,4.32
2022-11-06T01:51:01.780Z,3.75
2022-11-06T01:52:09.934Z,3.67
2022-11-06T01:53:13.311Z,3.92
2022-11-06T01:54:16.894Z,3.90
2022-11-06T01:55:24.730Z,3.92
2022-11-06T01:56:27.036Z,3.42
2022-11-06T01:57:29.366Z,4.10
2022-11-06T01:58:34.354Z,3.65
2022-11-06T01:59:42.577Z,3.65
2022-11-06T02:00:46.210Z,3.78
2022-11-06T02:01:48.596Z,3.50
2022-11-06T02:02:51.347Z,4.38
2022-11-06T02:04:14.387Z,4.07
2022-11-06T02:05:17.372Z,3.60
2022-11-06T02:06:19.937Z,3.50
2022-11-06T02:07:22.531Z,3.72
2022-11-06T02:08:25.895Z,3.85
2022-11-06T02:09:30.560Z,4.18
2022-11-06T02:10:33.483Z,3.70
2022-11-06T02:11:37.196Z,4.00
2022-11-06T02:12:46.874Z,3.10
2022-11-06T02:14:00.877Z,3.85
2022-11-06T02:15:26.671Z,3.80
2022-11-06T02:16:41.759Z,4.10
2022-11-06T02:17:59.771Z,3.47
2022-11-06T02:19:09.479Z,3.50
2022-11-06T02:20:20.268Z,3.40
2022-11-06T02:21:49.914Z,3.13
2022-11-06T02:23:43.494Z,3.55
2022-11-06T02:25:22.702Z,3.95
2022-11-06T02:26:56.464Z,3.45
2022-11-06T02:28:05.463Z,3.92
2022-11-06T02:29:11.271Z,2.70
2022-11-06T02:30:15.955Z,3.53
2022-11-06T02:31:24.631Z,3.63
2022-11-06T02:32:58.349Z,3.28
2022-11-06T02:34:05.445Z,3.03
2022-11-06T02:35:22.436Z,3.50
2022-11-06T02:36:32.802Z,3.08
2022-11-06T02:37:36.891Z,3.60
2022-11-06T02:38:47.310Z,3.38
2022-11-06T02:39:52.966Z,3.10
2022-11-06T02:41:16.128Z,3.50
2022-11-06T02:42:20.284Z,3.05
2022-11-06T02:43:35.096Z,3.45
2022-11-06T02:44:39.229Z,3.25
2022-11-06T02:45:50.521Z,2.53
2022-11-06T02:47:00.951Z,3.70
2022-11-06T02:48:06.756Z,2.72
2022-11-06T02:49:14.705Z,2.78
2022-11-06T02:50:29.951Z,2.70
2022-11-06T02:51:37.683Z,2.70
2022-11-06T02:52:57.628Z,2.45
2022-11-06T02:54:03.191Z,2.90
2022-11-06T02:55:18.461Z,2.97
2022-11-06T02:56:24.956Z,3.15
2022-11-06T02:57:28.998Z,2.70
2022-11-06T02:58:54.317Z,3.03
2022-11-06T03:00:05.240Z,3.15
2022-11-06T03:01:37.126Z,2.58
2022-11-06T03:04:08.068Z,2.80
2022-11-06T03:05:13.528Z,2.45
2022-11-06T03:06:38.099Z,3.10
2022-11-06T03:07:55.042Z,2.72
2022-11-06T03:09:12.407Z,2.50
2022-11-06T03:10:14.903Z,2.90
2022-11-06T03:11:26.759Z,3.05
2022-11-06T03:12:42.835Z,2.97
2022-11-06T03:14:05.519Z,2.80
2022-11-06T03:15:10.989Z,3.20
2022-11-06T03:16:23.612Z,2.83
2022-11-06T03:17:46.865Z,2.90
2022-11-06T03:19:00.090Z,2.90
2022-11-06T03:20:15.952Z,3.10
2022-11-06T03:21:46.190Z,3.42
2022-11-06T03:23:20.696Z,3.78
2022-11-06T03:24:31.506Z,3.05
2022-11-06T03:25:47.720Z,3.30
2022-11-06T03:26:53.424Z,3.30
2022-11-06T03:28:13.058Z,3.90
2022-11-06T03:29:49.420Z,3.65
2022-11-06T03:30:55.977Z,3.58
2022-11-06T03:32:07.710Z,4.05
2022-11-06T03:33:23.109Z,3.45
2022-11-06T03:34:52.146Z,3.42
2022-11-06T03:36:04.492Z,3.38
2022-11-06T03:37:15.762Z,3.00
2022-11-06T03:38:32.077Z,3.25
2022-11-06T03:39:43.090Z,2.90
2022-11-06T03:40:50.706Z,3.58
2022-11-06T03:42:00.998Z,3.00
2022-11-06T03:43:08.413Z,3.10
2022-11-06T03:44:14.484Z,3.15
2022-11-06T03:45:22.157Z,3.08
2022-11-06T03:46:26.869Z,3.22
2022-11-06T03:47:42.252Z,3.20
2022-11-06T03:48:49.222Z,2.80
2022-11-06T03:50:05.160Z,2.90
2022-11-06T03:51:14.969Z,2.88
2022-11-06T03:52:28.372Z,2.97
2022-11-06T03:53:38.282Z,3.00
2022-11-06T03:54:55.141Z,2.95
2022-11-06T03:56:09.090Z,2.75
2022-11-06T03:57:38.788Z,3.35
2022-11-06T03:58:45.211Z,2.90
2022-11-06T03:59:53.113Z,3.05
2022-11-06T04:00:56.677Z,3.40
2022-11-06T04:02:00.794Z,3.30
2022-11-06T04:03:10.066Z,3.17
2022-11-06T04:04:21.699Z,3.30
2022-11-06T04:05:25.094Z,3.10
2022-11-06T04:06:35.166Z,2.75
2022-11-06T04:07:43.101Z,3.20
2022-11-06T04:09:07.548Z,189.70
2022-11-06T04:10:30.939Z,151.57
2022-11-06T04:11:54.186Z,50.97
2022-11-06T04:13:17.741Z,72.32
2022-11-06T04:14:23.027Z,41.65
2022-11-06T04:15:25.822Z,46.20
2022-11-06T04:16:41.204Z,28.15
2022-11-06T04:17:43.533Z,35.60
2022-11-06T04:18:45.790Z,40.45
2022-11-06T04:19:54.955Z,41.97
2022-11-06T04:21:25.988Z,41.38
2022-11-06T04:22:55.651Z,38.78
2022-11-06T04:24:16.792Z,33.13
2022-11-06T04:25:46.419Z,34.15
2022-11-06T04:27:02.843Z,32.33
2022-11-06T04:28:24.022Z,31.15
2022-11-06T04:29:41.063Z,29.42
2022-11-06T04:30:55.214Z,30.08
2022-11-06T04:32:34.453Z,16.00
2022-11-06T04:34:05.694Z,121.13
2022-11-06T04:35:35.430Z,30.05
2022-11-06T04:36:59.618Z,19.95
2022-11-06T04:38:04.777Z,17.23
2022-11-06T04:39:17.871Z,15.80
2022-11-06T04:40:53.933Z,12.15
2022-11-06T04:42:16.669Z,47.58
2022-11-06T04:43:31.392Z,29.95
2022-11-06T04:44:38.462Z,28.48
2022-11-06T04:45:46.434Z,28.70
2022-11-06T04:47:10.350Z,26.20
2022-11-06T04:48:14.266Z,24.98
2022-11-06T04:49:18.278Z,23.27
2022-11-06T04:50:24.711Z,23.88
2022-11-06T04:51:31.935Z,23.10
2022-11-06T04:52:36.856Z,21.60
2022-11-06T04:53:40.574Z,22.85
2022-11-06T04:54:44.534Z,22.05
2022-11-06T04:56:01.609Z,22.00
2022-11-06T04:57:04.602Z,20.38
2022-11-06T04:58:06.916Z,20.65
2022-11-06T04:59:14.263Z,19.95
2022-11-06T05:00:17.261Z,19.98
2022-11-06T05:01:19.772Z,18.90
2022-11-06T05:02:22.818Z,19.40
2022-11-06T05:03:25.276Z,20.83
2022-11-06T05:04:27.700Z,21.40
2022-11-06T05:05:29.972Z,19.17
2022-11-06T05:06:32.559Z,20.27
2022-11-06T05:07:34.900Z,19.60
2022-11-06T05:08:37.232Z,20.02
2022-11-06T05:09:39.567Z,19.27
2022-11-06T05:10:43.130Z,19.67
2022-11-06T05:11:45.728Z,19.73
2022-11-06T05:12:48.327Z,18.63
2022-11-06T05:13:50.772Z,19.60
2022-11-06T05:14:53.133Z,18.05
2022-11-06T05:15:57.452Z,18.90
2022-11-06T05:17:00.244Z,19.58
2022-11-06T05:18:02.619Z,10.80
2022-11-06T05:19:05.346Z,8.55
2022-11-06T05:20:08.040Z,6.85
2022-11-06T05:21:29.590Z,5.70
2022-11-06T05:22:50.757Z,5.45
2022-11-06T05:23:53.045Z,5.65
2022-11-06T05:24:55.457Z,6.95
2022-11-06T05:25:57.748Z,8.55
2022-11-06T05:27:00.113Z,9.88
2022-11-06T05:28:07.119Z,10.32
2022-11-06T05:29:10.649Z,11.57
2022-11-06T05:30:13.131Z,12.05
2022-11-06T05:31:15.466Z,11.88
2022-11-06T05:32:17.819Z,11.30
2022-11-06T05:33:20.103Z,11.90
2022-11-06T05:34:22.427Z,11.63
2022-11-06T05:35:24.730Z,11.80
2022-11-06T05:36:27.058Z,11.95
2022-11-06T05:37:29.456Z,11.00
2022-11-06T05:38:32.391Z,11.88
2022-11-06T05:39:38.968Z,11.05
2022-11-06T05:40:44.345Z,10.35
2022-11-06T05:41:46.719Z,10.65
2022-11-06T05:42:49.037Z,10.30
2022-11-06T05:43:51.289Z,10.18
2022-11-06T05:44:53.577Z,10.75
2022-11-06T05:45:55.930Z,11.68
2022-11-06T05:46:58.185Z,10.40
2022-11-06T05:48:00.509Z,10.15
2022-11-06T05:49:02.851Z,10.88
2022-11-06T05:50:05.604Z,10.70
2022-11-06T05:51:08.668Z,10.88
2022-11-06T05:52:11.004Z,11.07
2022-11-06T05:53:13.866Z,9.93
2022-11-06T05:54:16.171Z,10.13
2022-11-06T05:55:18.692Z,11.52
2022-11-06T05:56:21.087Z,10.18
2022-11-06T05:57:23.444Z,10.23
2022-11-06T05:58:26.786Z,10.60
2022-11-06T05:59:29.173Z,11.50
2022-11-06T06:00:31.497Z,9.65
2022-11-06T06:01:34.072Z,10.25
2022-11-06T06:02:37.580Z,9.60
2022-11-06T06:03:39.999Z,9.27
2022-11-06T06:04:42.334Z,10.68
2022-11-06T06:05:44.632Z,9.38
2022-11-06T06:06:47.265Z,8.70
2022-11-06T06:07:49.608Z,8.25
2022-11-06T06:08:51.905Z,8.88
2022-11-06T06:09:54.354Z,9.20
2022-11-06T06:10:56.690Z,9.15
2022-11-06T06:11:59.081Z,9.05
2022-11-06T06:13:01.397Z,9.80
2022-11-06T06:14:03.725Z,9.07
2022-11-06T06:15:07.398Z,9.07
2022-11-06T06:16:09.672Z,9.65
2022-11-06T06:17:12.003Z,9.32
2022-11-06T06:18:14.469Z,9.27
2022-11-06T06:19:17.151Z,11.30
2022-11-06T06:20:19.529Z,9.73
2022-11-06T06:21:21.855Z,9.73
2022-11-06T06:22:24.205Z,8.93
2022-11-06T06:23:26.613Z,9.60
2022-11-06T06:24:28.983Z,9.63
2022-11-06T06:25:31.630Z,10.73
2022-11-06T06:26:33.912Z,9.30
2022-11-06T06:27:37.567Z,8.90
2022-11-06T06:28:39.930Z,10.05
2022-11-06T06:29:42.227Z,9.27
2022-11-06T06:30:44.553Z,10.07
2022-11-06T06:31:46.961Z,9.02
2022-11-06T06:32:52.444Z,10.10
2022-11-06T06:33:54.799Z,9.10
2022-11-06T06:34:57.085Z,9.25
2022-11-06T06:36:02.210Z,9.45
2022-11-06T06:37:04.759Z,9.85
2022-11-06T06:38:07.056Z,9.75
2022-11-06T06:39:09.357Z,10.02
2022-11-06T06:40:11.938Z,9.50
2022-11-06T06:41:14.258Z,9.73
2022-11-06T06:42:16.519Z,9.55
2022-11-06T06:43:18.840Z,9.43
2022-11-06T06:44:21.210Z,9.27
2022-11-06T06:45:24.490Z,9.63
2022-11-06T06:46:26.841Z,9.02
2022-11-06T06:47:29.185Z,9.15
2022-11-06T06:48:32.024Z,9.90
2022-11-06T06:49:35.708Z,9.40
2022-11-06T06:50:38.200Z,9.68
2022-11-06T06:51:40.526Z,8.75
2022-11-06T06:52:42.790Z,9.68
2022-11-06T06:53:45.122Z,8.77
2022-11-06T06:54:47.401Z,7.97
2022-11-06T06:55:49.765Z,8.77
2022-11-06T06:56:52.175Z,7.70
2022-11-06T06:58:01.634Z,7.80
2022-11-06T06:59:03.993Z,7.55
2022-11-06T07:00:07.056Z,6.72
2022-11-06T07:01:10.862Z,6.82
2022-11-06T07:02:13.480Z,7.47
2022-11-06T07:03:15.887Z,7.15
2022-11-06T07:04:18.234Z,6.93
2022-11-06T07:05:20.841Z,7.05
2022-11-06T07:06:23.310Z,8.00
2022-11-06T07:07:25.608Z,7.68
2022-11-06T07:08:28.490Z,8.38
2022-11-06T07:09:32.076Z,8.82
2022-11-06T07:10:34.417Z,8.75
2022-11-06T07:11:36.843Z,8.57
2022-11-06T07:12:39.165Z,8.15
2022-11-06T07:13:41.502Z,8.40
2022-11-06T07:14:43.818Z,8.55
2022-11-06T07:15:46.156Z,8.80
2022-11-06T07:16:53.410Z,8.65
2022-11-06T07:18:00.794Z,8.27
2022-11-06T07:19:03.122Z,8.40
2022-11-06T07:20:06.167Z,8.25
2022-11-06T07:21:10.779Z,7.90
2022-11-06T07:22:13.053Z,8.40
2022-11-06T07:23:15.359Z,7.55
2022-11-06T07:24:18.136Z,7.30
2022-11-06T07:25:20.413Z,7.68
2022-11-06T07:26:22.745Z,8.43
2022-11-06T07:27:25.221Z,8.35
2022-11-06T07:28:27.555Z,7.35
2022-11-06T07:29:29.923Z,8.35
2022-11-06T07:30:32.959Z,7.35
2022-11-06T07:31:35.241Z,8.35
2022-11-06T07:32:37.634Z,7.85
2022-11-06T07:33:40.333Z,7.90
2022-11-06T07:34:42.662Z,7.50
2022-11-06T07:35:45.007Z,7.40
2022-11-06T07:36:47.355Z,7.70
2022-11-06T07:37:49.636Z,8.02
2022-11-06T07:38:52.457Z,7.70
2022-11-06T07:39:54.765Z,8.35
2022-11-06T07:41:01.848Z,7.95
2022-11-06T07:42:04.303Z,8.23
2022-11-06T07:43:11.966Z,8.13
2022-11-06T07:44:14.409Z,7.53
2022-11-06T07:45:16.820Z,7.75
2022-11-06T07:46:19.115Z,7.20
2022-11-06T07:47:22.531Z,6.78
2022-11-06T07:48:24.816Z,7.05
2022-11-06T07:49:27.175Z,7.60
2022-11-06T07:50:30.257Z,7.10
2022-11-06T07:51:32.558Z,7.43
2022-11-06T07:52:34.888Z,7.07
2022-11-06T07:53:38.246Z,6.05
2022-11-06T07:54:40.524Z,6.68
2022-11-06T07:55:53.489Z,8.07
2022-11-06T07:56:55.808Z,7.82
2022-11-06T07:57:59.530Z,7.22
2022-11-06T07:59:01.871Z,8.00
2022-11-06T08:00:05.975Z,7.68
2022-11-06T08:01:18.835Z,7.25
2022-11-06T08:02:21.576Z,7.30
2022-11-06T08:03:25.735Z,6.75
2022-11-06T08:04:28.115Z,7.20
2022-11-06T08:05:30.405Z,6.93
2022-11-06T08:06:32.821Z,7.25
2022-11-06T08:07:35.184Z,7.25
2022-11-06T08:08:37.956Z,7.05
2022-11-06T08:09:40.360Z,7.72
2022-11-06T08:10:47.600Z,7.57
2022-11-06T08:11:49.926Z,7.40
2022-11-06T08:12:52.210Z,7.45
2022-11-06T08:13:54.497Z,7.05
2022-11-06T08:14:56.809Z,6.65
2022-11-06T08:15:59.278Z,6.80
2022-11-06T08:17:01.627Z,6.80
2022-11-06T08:18:04.798Z,7.45
2022-11-06T08:19:07.165Z,8.10
2022-11-06T08:20:10.023Z,7.13
2022-11-06T08:21:12.336Z,7.55
2022-11-06T08:22:15.012Z,6.90
2022-11-06T08:23:19.276Z,6.90
2022-11-06T08:24:22.304Z,7.10
2022-11-06T08:25:24.756Z,7.28
2022-11-06T08:26:27.541Z,7.57
2022-11-06T08:27:29.847Z,6.78
2022-11-06T08:28:32.370Z,7.32
2022-11-06T08:29:38.364Z,7.13
2022-11-06T08:30:43.562Z,6.65
2022-11-06T08:31:46.670Z,6.80
2022-11-06T08:32:49.389Z,4.45
2022-11-06T08:33:53.250Z,6.53
2022-11-06T08:34:55.611Z,6.53
2022-11-06T08:36:05.192Z,4.18
2022-11-06T08:37:08.977Z,3.70
2022-11-06T08:38:11.694Z,3.22
2022-11-06T08:39:14.204Z,4.20
2022-11-06T08:40:16.652Z,3.80
2022-11-06T08:41:19.046Z,3.92
2022-11-06T08:42:21.337Z,5.22
2022-11-06T08:43:26.352Z,4.95
2022-11-06T08:44:28.615Z,5.20
2022-11-06T08:45:31.570Z,5.40
2022-11-06T08:46:33.936Z,5.68
2022-11-06T08:47:36.244Z,5.97
2022-11-06T08:48:38.584Z,5.53
2022-11-06T08:49:41.213Z,5.88
2022-11-06T08:50:43.546Z,5.15
2022-11-06T08:51:46.157Z,5.35
2022-11-06T08:52:48.477Z,5.72
2022-11-06T08:53:50.921Z,5.20
2022-11-06T08:54:53.419Z,5.80
2022-11-06T08:55:55.684Z,4.68
2022-11-06T08:56:58.478Z,4.85
2022-11-06T08:58:01.124Z,5.22
2022-11-06T08:59:03.463Z,5.40
2022-11-06T09:00:06.396Z,5.57
2022-11-06T09:01:09.804Z,5.53
2022-11-06T09:02:13.807Z,5.28
2022-11-06T09:03:20.377Z,5.55
2022-11-06T09:04:22.770Z,5.32
2022-11-06T09:05:25.223Z,5.22
2022-11-06T09:06:27.645Z,5.45
2022-11-06T09:07:29.970Z,5.35
2022-11-06T09:08:32.629Z,5.20
2022-11-06T09:09:35.330Z,5.10
2022-11-06T09:10:39.328Z,4.97
2022-11-06T09:11:42.041Z,5.40
2022-11-06T09:12:44.504Z,5.03
2022-11-06T09:13:47.075Z,5.32
2022-11-06T09:14:49.346Z,4.88
2022-11-06T09:15:51.624Z,4.95
2022-11-06T09:16:54.310Z,5.32
2022-11-06T09:17:56.842Z,4.68
2022-11-06T09:18:59.329Z,4.93
2022-11-06T09:20:02.009Z,5.13
2022-11-06T09:21:04.677Z,5.15
2022-11-06T09:22:08.367Z,5.40
2022-11-06T09:23:15.015Z,5.35
2022-11-06T09:24:27.398Z,4.55
2022-11-06T09:25:39.964Z,4.95
2022-11-06T09:26:42.586Z,4.97
2022-11-06T09:27:47.090Z,5.05
2022-11-06T09:28:49.384Z,5.30
2022-11-06T09:29:51.661Z,5.80
2022-11-06T09:30:55.275Z,4.95
2022-11-06T09:31:57.737Z,5.60
2022-11-06T09:33:02.246Z,6.07
2022-11-06T09:34:04.593Z,6.00
2022-11-06T09:35:07.190Z,5.57
2022-11-06T09:36:09.646Z,5.38
2022-11-06T09:37:11.933Z,5.93
2022-11-06T09:38:17.284Z,5.93
2022-11-06T09:39:19.653Z,5.93
2022-11-06T09:40:45.372Z,6.43
2022-11-06T09:41:59.664Z,6.22
2022-11-06T09:43:43.212Z,5.28
2022-11-06T09:45:05.058Z,6.43
2022-11-06T09:46:28.618Z,6.28
2022-11-06T09:47:37.670Z,6.70
2022-11-06T09:48:44.148Z,5.90
2022-11-06T09:49:57.260Z,6.40
2022-11-06T09:51:14.808Z,5.80
2022-11-06T09:52:29.516Z,6.22
2022-11-06T09:53:38.495Z,6.00
2022-11-06T09:54:56.164Z,5.72
2022-11-06T09:56:02.753Z,5.53
2022-11-06T09:57:15.534Z,5.82
2022-11-06T09:58:28.672Z,6.80
2022-11-06T09:59:35.806Z,6.05
2022-11-06T10:00:40.119Z,6.72
2022-11-06T10:01:58.668Z,6.22
2022-11-06T10:03:06.336Z,5.88
2022-11-06T10:04:26.576Z,5.78
2022-11-06T10:05:33.224Z,6.40
2022-11-06T10:06:36.218Z,6.10
2022-11-06T10:07:41.267Z,5.82
2022-11-06T10:08:44.247Z,6.03
2022-11-06T10:09:46.558Z,5.63
2022-11-06T10:11:13.622Z,5.07
2022-11-06T10:12:29.702Z,5.65
2022-11-06T10:13:52.060Z,6.13
2022-11-06T10:15:07.863Z,5.85
2022-11-06T10:16:36.208Z,5.35
2022-11-06T10:17:44.034Z,5.57
2022-11-06T10:19:26.521Z,5.80
2022-11-06T10:20:43.657Z,4.90
2022-11-06T10:21:48.590Z,6.03
2022-11-06T10:23:05.113Z,5.55
2022-11-06T10:24:42.922Z,5.00
2022-11-06T10:25:51.357Z,5.88
2022-11-06T10:26:56.565Z,5.65
2022-11-06T10:28:03.064Z,5.35
2022-11-06T10:29:23.601Z,6.03
2022-11-06T10:30:29.876Z,5.20
2022-11-06T10:31:41.229Z,5.22
2022-11-06T10:33:18.567Z,5.88
2022-11-06T10:34:29.690Z,5.05
2022-11-06T10:35:50.776Z,5.30
2022-11-06T10:36:59.121Z,4.95
2022-11-06T10:38:12.458Z,5.50
2022-11-06T10:39:26.459Z,5.50
2022-11-06T10:40:31.493Z,5.00
2022-11-06T10:41:35.900Z,4.68
2022-11-06T10:42:41.412Z,5.70
2022-11-06T10:43:54.791Z,5.53
2022-11-06T10:45:05.711Z,5.15
2022-11-06T10:46:32.324Z,5.00
2022-11-06T10:48:00.168Z,5.30
2022-11-06T10:49:11.585Z,4.65
2022-11-06T10:51:59.815Z,4.68
2022-11-06T10:53:36.776Z,4.50
2022-11-06T10:55:12.479Z,4.68
2022-11-06T10:56:31.629Z,5.00
2022-11-06T10:57:59.115Z,4.78
2022-11-06T10:59:01.630Z,4.80
2022-11-06T11:00:11.837Z,4.85
2022-11-06T11:01:15.306Z,4.70
2022-11-06T11:02:32.015Z,4.45
2022-11-06T11:03:35.862Z,4.30
2022-11-06T11:04:38.205Z,4.65
2022-11-06T11:05:43.042Z,4.65
2022-11-06T11:06:45.564Z,4.28
2022-11-06T11:07:49.794Z,4.68
2022-11-06T11:08:52.472Z,4.75
2022-11-06T11:09:57.813Z,4.30
2022-11-06T11:11:15.400Z,4.72
2022-11-06T11:12:35.756Z,5.10
2022-11-06T11:13:38.143Z,5.07
2022-11-06T11:14:40.603Z,4.45
2022-11-06T11:15:48.600Z,4.40
2022-11-06T11:16:51.809Z,4.63
2022-11-06T11:18:12.563Z,4.70
2022-11-06T11:19:35.643Z,4.55
2022-11-06T11:20:40.390Z,4.25
2022-11-06T11:22:00.008Z,4.43
2022-11-06T11:23:19.813Z,5.30
2022-11-06T11:24:23.943Z,4.05
2022-11-06T11:25:26.272Z,4.57
2022-11-06T11:26:31.075Z,4.43
2022-11-06T11:27:53.928Z,4.63
2022-11-06T11:28:58.917Z,4.18
2022-11-06T11:30:04.372Z,4.50
2022-11-06T11:31:11.855Z,3.90
2022-11-06T11:32:17.311Z,3.90
2022-11-06T11:33:23.349Z,3.92
2022-11-06T11:34:29.260Z,4.35
2022-11-06T11:35:31.965Z,4.57
2022-11-06T11:36:54.422Z,4.35
2022-11-06T11:38:10.869Z,4.15
2022-11-06T11:39:18.748Z,3.72
2022-11-06T11:40:23.814Z,4.07
2022-11-06T11:41:26.429Z,4.38
2022-11-06T11:42:31.295Z,4.25
2022-11-06T11:43:33.652Z,3.88
2022-11-06T11:44:36.045Z,4.30
2022-11-06T11:45:38.472Z,4.15
2022-11-06T11:46:54.269Z,4.25
2022-11-06T11:48:13.753Z,3.70
2022-11-06T11:49:26.493Z,3.95
2022-11-06T11:50:32.098Z,4.20
2022-11-06T11:51:47.289Z,3.92
2022-11-06T11:52:55.423Z,4.38
2022-11-06T11:54:04.063Z,4.30
2022-11-06T11:55:16.424Z,4.47
2022-11-06T11:56:42.546Z,4.50
2022-11-06T11:57:48.875Z,3.90
2022-11-06T11:58:56.960Z,3.97
2022-11-06T12:00:06.109Z,3.83
2022-11-06T12:01:09.248Z,4.45
2022-11-06T12:02:26.570Z,3.53
2022-11-06T12:03:41.783Z,4.10
2022-11-06T12:04:46.981Z,3.63
2022-11-06T12:05:49.325Z,3.60
2022-11-06T12:06:55.194Z,3.75
2022-11-06T12:07:58.969Z,4.32
2022-11-06T12:09:01.600Z,3.17
2022-11-06T12:10:27.018Z,4.28
2022-11-06T12:11:30.521Z,3.95
2022-11-06T12:12:34.238Z,3.55
2022-11-06T12:13:36.791Z,3.47
2022-11-06T12:14:39.960Z,5.68
2022-11-06T12:16:02.688Z,9.43
2022-11-06T12:17:25.093Z,18.67
2022-11-06T12:19:04.669Z,8.77
2022-11-06T12:20:17.629Z,5.90
2022-11-06T12:21:35.860Z,7.18
2022-11-06T12:22:42.990Z,7.90
2022-11-06T12:23:51.427Z,7.78
2022-11-06T12:25:26.315Z,7.95
2022-11-06T12:26:48.255Z,7.43
2022-11-06T12:27:57.768Z,6.78
2022-11-06T12:29:17.108Z,7.10
2022-11-06T12:30:20.654Z,7.35
2022-11-06T12:31:59.645Z,6.80
2022-11-06T12:33:11.032Z,7.32
2022-11-06T12:35:47.620Z,7.82
2022-11-06T12:37:18.214Z,6.63
2022-11-06T12:38:37.692Z,6.63
2022-11-06T12:39:42.461Z,7.05
2022-11-06T12:41:01.156Z,5.90
2022-11-06T12:42:06.367Z,6.13
2022-11-06T12:43:20.375Z,6.40
2022-11-06T12:44:22.726Z,5.93
2022-11-06T12:45:37.611Z,5.97
2022-11-06T12:47:00.188Z,6.25
2022-11-06T12:48:21.699Z,6.25
2022-11-06T12:49:36.197Z,5.95
2022-11-06T12:50:49.063Z,5.53
2022-11-06T12:52:06.338Z,6.10
2022-11-06T12:53:29.598Z,6.00
2022-11-06T12:54:54.457Z,5.90
2022-11-06T12:56:22.998Z,5.90
2022-11-06T12:57:30.827Z,5.53
2022-11-06T12:59:00.918Z,5.78
2022-11-06T13:00:17.742Z,5.63
2022-11-06T13:01:45.017Z,5.43
2022-11-06T13:03:18.921Z,5.10
2022-11-06T13:04:41.953Z,5.03
2022-11-06T13:06:25.226Z,5.18
2022-11-06T13:07:46.368Z,5.07
2022-11-06T13:09:07.938Z,5.78
2022-11-06T13:10:39.621Z,4.93
2022-11-06T13:11:41.917Z,5.18
2022-11-06T13:12:52.712Z,5.47
2022-11-06T13:14:19.884Z,4.95
2022-11-06T13:15:48.652Z,5.32
2022-11-06T13:17:00.838Z,4.63
2022-11-06T13:18:15.084Z,5.30
2022-11-06T13:19:34.624Z,4.95
2022-11-06T13:21:10.151Z,4.95
2022-11-06T13:22:42.595Z,5.18
2022-11-06T13:23:50.505Z,4.90
2022-11-06T13:25:14.875Z,4.82
2022-11-06T13:26:33.596Z,4.82
2022-11-06T13:28:01.848Z,4.55
2022-11-06T13:29:09.132Z,4.68
2022-11-06T13:30:22.374Z,4.72
2022-11-06T13:31:53.132Z,4.75
2022-11-06T13:33:10.098Z,4.35
2022-11-06T13:34:19.829Z,4.57
2022-11-06T13:35:23.307Z,4.60
2022-11-06T13:36:27.984Z,4.72
2022-11-06T13:37:39.738Z,4.75
2022-11-06T13:39:03.944Z,4.90
2022-11-06T13:40:32.589Z,4.65
2022-11-06T13:41:34.925Z,4.70
2022-11-06T13:42:57.491Z,4.28
2022-11-06T13:44:02.777Z,4.70
2022-11-06T13:45:07.728Z,4.68
2022-11-06T13:46:49.789Z,4.10
2022-11-06T13:48:06.905Z,4.72
2022-11-06T13:49:16.806Z,4.53
2022-11-06T13:50:43.033Z,3.95
2022-11-06T13:51:55.900Z,3.92
2022-11-06T13:53:05.562Z,4.55
2022-11-06T13:54:19.973Z,4.32
2022-11-06T13:55:41.223Z,4.22
2022-11-06T13:57:09.838Z,4.18
2022-11-06T13:58:52.172Z,4.47
2022-11-06T14:00:09.860Z,4.35
2022-11-06T14:01:24.520Z,4.20
2022-11-06T14:02:46.735Z,3.58
2022-11-06T14:04:07.552Z,4.30
2022-11-06T14:05:43.439Z,4.30
2022-11-06T14:06:47.562Z,4.45
2022-11-06T14:07:52.393Z,4.43
2022-11-06T14:09:01.648Z,4.47
2022-11-06T14:10:05.418Z,3.15
2022-11-06T14:11:15.169Z,3.85
2022-11-06T14:12:22.752Z,3.17
2022-11-06T14:13:27.958Z,2.85
2022-11-06T14:14:32.877Z,3.10
2022-11-06T14:15:41.911Z,2.50
2022-11-06T14:16:44.316Z,2.60
2022-11-06T14:17:58.287Z,3.20
2022-11-06T14:19:27.697Z,3.40
2022-11-06T14:20:32.556Z,3.33
2022-11-06T14:21:37.669Z,3.45
2022-11-06T14:22:40.029Z,3.47
2022-11-06T14:23:45.987Z,3.95
2022-11-06T14:24:48.306Z,3.95
2022-11-06T14:26:02.040Z,3.67
2022-11-06T14:27:23.844Z,3.50
2022-11-06T14:28:35.006Z,3.33
2022-11-06T14:29:37.278Z,3.88
2022-11-06T14:32:21.403Z,3.60
2022-11-06T14:33:59.042Z,3.70
2022-11-06T14:35:29.266Z,3.60
2022-11-06T14:36:35.573Z,4.15
2022-11-06T14:37:43.834Z,3.70
2022-11-06T14:38:46.388Z,3.20
2022-11-06T14:39:51.589Z,3.22
2022-11-06T14:40:53.865Z,3.50
2022-11-06T14:41:58.126Z,3.38
2022-11-06T14:43:00.525Z,3.15
2022-11-06T14:44:21.083Z,3.85
2022-11-06T14:45:23.423Z,3.13
2022-11-06T14:46:25.887Z,3.90
2022-11-06T14:47:31.621Z,3.20
2022-11-06T14:48:40.630Z,3.80
2022-11-06T14:49:51.013Z,3.63
2022-11-06T14:50:53.455Z,3.35
2022-11-06T14:52:08.147Z,3.72
2022-11-06T14:53:27.949Z,3.75
2022-11-06T14:54:31.589Z,3.30
2022-11-06T14:55:58.880Z,3.72
2022-11-06T14:57:01.330Z,3.28
2022-11-06T14:58:14.853Z,3.70
2022-11-06T14:59:40.411Z,3.28
2022-11-06T15:00:56.443Z,3.25
2022-11-06T15:02:19.763Z,3.15
2022-11-06T15:03:22.064Z,3.13
2022-11-06T15:04:33.687Z,2.85
2022-11-06T15:05:41.847Z,2.97
2022-11-06T15:06:48.838Z,3.47
2022-11-06T15:08:05.717Z,3.08
2022-11-06T15:09:35.422Z,3.78
2022-11-06T15:10:43.508Z,3.65
2022-11-06T15:11:49.464Z,3.13
2022-11-06T15:13:25.255Z,3.67
2022-11-06T15:14:30.214Z,3.38
2022-11-06T15:15:35.072Z,3.00
2022-11-06T15:16:54.497Z,3.22
2022-11-06T15:17:58.959Z,3.55
2022-11-06T15:19:06.464Z,3.75
2022-11-06T15:20:20.584Z,3.22